createdAt,value
2022-10-19T00:02:13.931Z,5.28
2022-10-19T00:05:02.301Z,10.00
2022-10-19T00:07:52.042Z,11.00
2022-10-19T00:10:42.003Z,8.55
2022-10-19T00:13:30.349Z,11.57
2022-10-19T00:16:20.121Z,9.40
2022-10-19T00:19:12.434Z,10.13
2022-10-19T00:22:00.731Z,16.02
2022-10-19T00:24:50.459Z,11.63
2022-10-19T00:27:38.951Z,18.25
2022-10-19T00:30:27.280Z,13.88
2022-10-19T00:33:20.861Z,19.45
2022-10-19T00:36:17.020Z,10.55
2022-10-19T00:39:07.565Z,10.27
2022-10-19T00:41:57.278Z,14.80
2022-10-19T00:45:14.325Z,10.50
2022-10-19T00:48:02.686Z,12.10
2022-10-19T00:50:53.852Z,11.93
2022-10-19T00:56:30.884Z,12.23
2022-10-19T00:59:22.361Z,9.30
2022-10-19T01:02:11.089Z,14.43
2022-10-19T01:05:00.404Z,10.45
2022-10-19T01:07:48.742Z,11.25
2022-10-19T01:10:44.481Z,14.00
2022-10-19T01:13:44.142Z,9.43
2022-10-19T01:16:43.668Z,9.45
2022-10-19T01:19:58.830Z,8.95
2022-10-19T01:23:06.954Z,6.57
2022-10-19T01:26:02.115Z,13.02
2022-10-19T01:29:04.761Z,9.60
2022-10-19T01:31:59.908Z,10.40
2022-10-19T01:34:53.103Z,8.23
2022-10-19T01:38:06.876Z,11.95
2022-10-19T01:40:58.949Z,9.30
2022-10-19T01:43:55.071Z,10.75
2022-10-19T01:46:45.973Z,6.30
2022-10-19T01:49:42.540Z,7.60
2022-10-19T01:52:33.563Z,10.15
2022-10-19T01:55:23.376Z,5.03
2022-10-19T01:58:15.061Z,12.40
2022-10-19T02:01:06.902Z,7.88
2022-10-19T02:03:56.083Z,10.07
2022-10-19T02:06:45.911Z,12.95
2022-10-19T02:09:34.247Z,6.90
2022-10-19T02:12:23.476Z,9.90
2022-10-19T02:15:16.008Z,7.57
2022-10-19T02:18:07.092Z,8.45
2022-10-19T02:23:45.136Z,8.70
2022-10-19T02:26:34.099Z,10.23
2022-10-19T02:29:22.455Z,9.10
2022-10-19T02:32:11.521Z,7.03
2022-10-19T02:34:59.860Z,8.88
2022-10-19T02:37:48.242Z,11.20
2022-10-19T02:40:43.608Z,8.98
2022-10-19T02:43:35.482Z,11.43
2022-10-19T02:46:30.069Z,13.73
2022-10-19T02:49:19.105Z,9.50
2022-10-19T02:52:09.622Z,14.43
2022-10-19T02:54:57.978Z,11.80
2022-10-19T02:57:47.765Z,12.65
2022-10-19T03:00:36.170Z,14.68
2022-10-19T03:03:24.566Z,12.23
2022-10-19T03:06:13.076Z,10.98
2022-10-19T03:09:01.363Z,9.73
2022-10-19T03:11:49.766Z,15.35
2022-10-19T03:14:39.426Z,13.50
2022-10-19T03:17:27.792Z,10.80
2022-10-19T03:20:16.215Z,8.80
2022-10-19T03:23:04.671Z,9.50
2022-10-19T03:25:53.006Z,12.95
2022-10-19T03:28:41.506Z,8.75
2022-10-19T03:31:31.246Z,12.43
2022-10-19T03:34:19.575Z,12.98
2022-10-19T03:37:08.686Z,10.75
2022-10-19T03:39:57.012Z,11.20
2022-10-19T03:42:45.347Z,8.73
2022-10-19T03:45:33.919Z,9.40
2022-10-19T03:48:23.596Z,8.30
2022-10-19T03:51:13.829Z,6.35
2022-10-19T03:54:03.872Z,12.10
2022-10-19T03:56:52.192Z,13.50
2022-10-19T03:59:40.509Z,8.25
2022-10-19T04:02:28.842Z,11.00
2022-10-19T04:05:18.624Z,7.75
2022-10-19T04:08:07.385Z,7.32
2022-10-19T04:11:00.363Z,5.85
2022-10-19T04:13:49.569Z,7.20
2022-10-19T04:16:37.896Z,5.65
2022-10-19T04:19:26.392Z,6.95
2022-10-19T04:22:16.976Z,5.20
2022-10-19T04:25:06.464Z,8.00
2022-10-19T04:27:54.789Z,7.25
2022-10-19T04:30:43.174Z,6.93
2022-10-19T04:33:31.629Z,6.80
2022-10-19T04:36:20.110Z,4.75
2022-10-19T04:39:09.959Z,5.07
2022-10-19T04:41:58.297Z,12.57
2022-10-19T04:44:46.636Z,5.13
2022-10-19T04:47:35.125Z,6.03
2022-10-19T04:50:23.741Z,3.70
2022-10-19T04:53:12.141Z,7.30
2022-10-19T04:56:05.401Z,5.78
2022-10-19T04:58:55.829Z,4.43
2022-10-19T05:01:46.328Z,6.07
2022-10-19T05:04:35.736Z,4.13
2022-10-19T05:07:24.149Z,5.50
2022-10-19T05:10:12.825Z,6.47
2022-10-19T05:13:03.453Z,5.35
2022-10-19T05:15:57.427Z,4.65
2022-10-19T05:18:49.575Z,7.50
2022-10-19T05:21:37.904Z,6.38
2022-10-19T05:24:26.390Z,6.45
2022-10-19T05:27:14.728Z,4.30
2022-10-19T05:30:06.436Z,8.50
2022-10-19T05:32:54.773Z,5.70
2022-10-19T05:35:43.088Z,8.38
2022-10-19T05:38:31.387Z,9.98
2022-10-19T05:41:19.940Z,4.88
2022-10-19T05:44:08.398Z,8.43
2022-10-19T05:46:58.088Z,7.28
2022-10-19T05:49:46.450Z,6.53
2022-10-19T05:52:34.798Z,11.18
2022-10-19T05:55:23.148Z,7.97
2022-10-19T05:58:11.477Z,6.05
2022-10-19T06:01:00.877Z,6.03
2022-10-19T06:03:53.228Z,6.80
2022-10-19T06:06:42.289Z,4.75
2022-10-19T06:09:35.864Z,6.60
2022-10-19T06:12:25.115Z,4.90
2022-10-19T06:15:13.605Z,7.82
2022-10-19T06:18:02.023Z,7.65
2022-10-19T06:20:51.685Z,6.32
2022-10-19T06:26:34.969Z,8.90
2022-10-19T06:29:23.376Z,8.15
2022-10-19T06:32:11.708Z,20.30
2022-10-19T06:35:00.058Z,6.82
2022-10-19T06:37:49.791Z,7.68
2022-10-19T06:40:38.119Z,8.77
2022-10-19T06:43:26.713Z,4.10
2022-10-19T06:46:20.191Z,6.90
2022-10-19T06:49:08.629Z,6.28
2022-10-19T06:51:56.912Z,7.60
2022-10-19T06:54:46.589Z,3.67
2022-10-19T06:57:35.290Z,3.67
2022-10-19T07:00:23.968Z,7.22
2022-10-19T07:03:12.365Z,7.30
2022-10-19T07:06:02.110Z,5.78
2022-10-19T07:08:50.468Z,4.22
2022-10-19T07:11:45.722Z,3.25
2022-10-19T07:14:38.695Z,6.90
2022-10-19T07:17:27.114Z,3.28
2022-10-19T07:20:15.533Z,7.65
2022-10-19T07:23:03.857Z,6.18
2022-10-19T07:25:53.308Z,3.25
2022-10-19T07:28:45.774Z,4.35
2022-10-19T07:31:34.246Z,5.88
2022-10-19T07:34:25.426Z,4.47
2022-10-19T07:37:16.546Z,4.07
2022-10-19T07:40:05.306Z,6.15
2022-10-19T07:42:53.660Z,6.00
2022-10-19T07:45:43.436Z,3.53
2022-10-19T07:48:32.019Z,6.85
2022-10-19T07:51:20.871Z,5.47
2022-10-19T07:54:09.770Z,8.80
2022-10-19T07:56:58.081Z,4.22
2022-10-19T07:59:46.442Z,7.53
2022-10-19T08:02:54.632Z,8.98
2022-10-19T08:05:44.452Z,2.92
2022-10-19T08:08:33.309Z,3.83
2022-10-19T08:11:23.587Z,6.63
2022-10-19T08:14:11.959Z,6.18
2022-10-19T08:17:00.583Z,5.85
2022-10-19T08:19:50.294Z,3.85
2022-10-19T08:22:38.629Z,5.72
2022-10-19T08:25:26.965Z,9.15
2022-10-19T08:28:15.352Z,3.83
2022-10-19T08:31:11.109Z,5.65
2022-10-19T08:33:59.777Z,5.72
2022-10-19T08:36:49.504Z,5.13
2022-10-19T08:39:37.805Z,7.15
2022-10-19T08:42:33.148Z,5.38
2022-10-19T08:45:38.521Z,4.82
2022-10-19T08:48:29.984Z,4.07
2022-10-19T08:51:18.411Z,4.10
2022-10-19T08:54:15.741Z,7.57
2022-10-19T08:57:14.954Z,5.18
2022-10-19T09:00:09.482Z,5.72
2022-10-19T09:03:06.102Z,7.72
2022-10-19T09:06:00.528Z,4.40
2022-10-19T09:08:51.181Z,4.78
2022-10-19T09:11:47.307Z,2.15
2022-10-19T09:14:40.137Z,4.93
2022-10-19T09:17:29.792Z,6.90
2022-10-19T09:20:21.319Z,4.25
2022-10-19T09:23:21.091Z,3.13
2022-10-19T09:26:15.700Z,2.15
2022-10-19T09:29:11.567Z,4.55
2022-10-19T09:32:02.175Z,2.45
2022-10-19T09:34:53.788Z,3.00
2022-10-19T09:37:47.022Z,6.03
2022-10-19T09:40:36.548Z,3.53
2022-10-19T09:43:25.486Z,2.55
2022-10-19T09:46:31.970Z,4.22
2022-10-19T09:49:20.625Z,5.15
2022-10-19T09:52:24.829Z,2.83
2022-10-19T09:55:27.537Z,3.47
2022-10-19T09:58:19.837Z,7.90
2022-10-19T10:01:08.151Z,4.32
2022-10-19T10:04:06.565Z,3.83
2022-10-19T10:06:57.676Z,3.95
2022-10-19T10:09:46.372Z,3.45
2022-10-19T10:12:36.625Z,5.00
2022-10-19T10:15:27.586Z,3.38
2022-10-19T10:18:18.225Z,4.63
2022-10-19T10:21:15.267Z,3.08
2022-10-19T10:24:06.530Z,4.97
2022-10-19T10:26:57.633Z,3.20
2022-10-19T10:32:52.352Z,6.22
2022-10-19T10:35:40.909Z,1.75
2022-10-19T10:38:34.860Z,3.28
2022-10-19T10:41:24.987Z,2.00
2022-10-19T10:44:20.275Z,4.17
2022-10-19T10:47:16.209Z,2.25
2022-10-19T10:50:07.769Z,6.72
2022-10-19T10:52:59.829Z,3.42
2022-10-19T10:55:56.872Z,0.98
2022-10-19T10:58:51.238Z,1.42
2022-10-19T11:01:43.771Z,1.67
2022-10-19T11:04:38.317Z,3.42
2022-10-19T11:07:29.079Z,3.38
2022-10-19T11:10:24.524Z,1.90
2022-10-19T11:13:21.718Z,2.05
2022-10-19T11:16:15.157Z,3.30
2022-10-19T11:22:17.720Z,0.70
2022-10-19T11:25:25.056Z,6.80
2022-10-19T11:28:25.310Z,5.43
2022-10-19T11:31:19.929Z,4.95
2022-10-19T11:34:28.606Z,2.33
2022-10-19T11:37:25.962Z,5.55
2022-10-19T11:40:22.488Z,2.83
2022-10-19T11:43:20.426Z,2.22
2022-10-19T11:46:17.370Z,3.08
2022-10-19T11:49:14.885Z,2.35
2022-10-19T11:52:09.781Z,3.35
2022-10-19T11:55:05.489Z,2.42
2022-10-19T11:58:00.588Z,2.78
2022-10-19T12:00:56.643Z,4.25
2022-10-19T12:04:12.173Z,3.53
2022-10-19T12:07:12.454Z,3.13
2022-10-19T12:10:09.672Z,2.53
2022-10-19T12:13:03.070Z,3.55
2022-10-19T12:15:55.127Z,1.55
2022-10-19T12:18:47.258Z,1.35
2022-10-19T12:21:39.316Z,1.35
2022-10-19T12:24:30.737Z,1.77
2022-10-19T12:27:24.471Z,2.70
2022-10-19T12:30:16.717Z,1.70
2022-10-19T12:33:15.588Z,0.90
2022-10-19T12:36:14.143Z,4.05
2022-10-19T12:39:11.261Z,3.85
2022-10-19T12:42:10.678Z,1.75
2022-10-19T12:45:18.474Z,2.05
2022-10-19T12:48:23.029Z,3.78
2022-10-19T12:51:15.056Z,4.95
2022-10-19T12:54:10.681Z,2.10
2022-10-19T12:57:01.710Z,5.22
2022-10-19T13:00:01.279Z,2.08
2022-10-19T13:03:00.967Z,3.45
2022-10-19T13:05:59.510Z,5.43
2022-10-19T13:08:56.304Z,1.73
2022-10-19T13:12:22.133Z,5.40
2022-10-19T13:15:56.086Z,4.75
2022-10-19T13:22:26.864Z,2.60
2022-10-19T13:25:33.525Z,1.88
2022-10-19T13:28:58.121Z,4.47
2022-10-19T13:31:46.514Z,3.25
2022-10-19T13:34:34.976Z,2.58
2022-10-19T13:37:24.763Z,5.20
2022-10-19T13:40:24.484Z,2.33
2022-10-19T13:43:20.728Z,2.20
2022-10-19T13:46:14.083Z,3.40
2022-10-19T13:49:32.767Z,1.17
2022-10-19T13:52:51.125Z,4.20
2022-10-19T13:56:03.218Z,1.30
2022-10-19T13:59:19.017Z,4.03
2022-10-19T14:02:51.984Z,2.35
2022-10-19T14:05:54.398Z,1.88
2022-10-19T14:09:15.183Z,4.30
2022-10-19T14:12:08.508Z,2.45
2022-10-19T14:14:57.627Z,2.10
2022-10-19T14:17:46.324Z,2.33
2022-10-19T14:20:42.431Z,2.10
2022-10-19T14:23:32.802Z,5.38
2022-10-19T14:26:24.397Z,2.55
2022-10-19T14:29:14.561Z,3.53
2022-10-19T14:32:03.390Z,2.87
2022-10-19T14:34:52.067Z,4.28
2022-10-19T14:37:45.238Z,1.83
2022-10-19T14:40:35.401Z,2.33
2022-10-19T14:43:26.963Z,4.32
2022-10-19T14:46:17.031Z,4.32
2022-10-19T14:49:06.899Z,3.63
2022-10-19T14:51:59.160Z,14.60
2022-10-19T14:54:51.906Z,14.82
2022-10-19T14:57:42.720Z,20.17
2022-10-19T15:00:34.051Z,34.17
2022-10-19T15:03:25.432Z,16.88
2022-10-19T15:06:20.551Z,48.80
2022-10-19T15:09:24.551Z,43.60
2022-10-19T15:12:28.958Z,28.52
2022-10-19T15:15:23.551Z,37.28
2022-10-19T15:18:43.475Z,36.47
2022-10-19T15:21:30.378Z,22.73
2022-10-19T15:24:28.326Z,9.63
2022-10-19T15:27:21.929Z,5.68
2022-10-19T15:30:26.821Z,7.53
2022-10-19T15:33:16.846Z,5.28
2022-10-19T15:36:08.561Z,3.83
2022-10-19T15:39:11.867Z,2.47
2022-10-19T15:42:35.800Z,4.13
2022-10-19T15:45:35.559Z,2.55
2022-10-19T15:48:50.061Z,2.25
2022-10-19T15:51:47.591Z,4.13
2022-10-19T15:54:35.947Z,3.50
2022-10-19T15:57:30.548Z,1.38
2022-10-19T16:00:20.304Z,4.13
2022-10-19T16:03:09.197Z,1.98
2022-10-19T16:05:58.943Z,1.45
2022-10-19T16:08:48.441Z,1.23
2022-10-19T16:11:36.795Z,3.13
2022-10-19T16:14:26.452Z,1.65
2022-10-19T16:17:15.924Z,3.72
2022-10-19T16:20:04.513Z,10.65
2022-10-19T16:22:54.251Z,1.27
2022-10-19T16:25:42.651Z,2.65
2022-10-19T16:28:30.953Z,2.15
2022-10-19T16:31:19.823Z,3.67
2022-10-19T16:34:08.143Z,3.67
2022-10-19T16:36:56.448Z,2.55
2022-10-19T16:39:46.126Z,3.63
2022-10-19T16:42:35.189Z,3.58
2022-10-19T16:45:23.656Z,1.50
2022-10-19T16:48:13.399Z,7.13
2022-10-19T16:51:24.795Z,6.38
2022-10-19T16:54:13.256Z,5.10
2022-10-19T16:57:07.143Z,3.72
2022-10-19T16:59:57.854Z,6.97
2022-10-19T17:02:46.632Z,5.15
2022-10-19T17:05:39.184Z,8.13
2022-10-19T17:08:36.714Z,7.05
2022-10-19T17:11:34.677Z,4.07
2022-10-19T17:14:24.382Z,5.35
2022-10-19T17:17:12.891Z,4.22
2022-10-19T17:20:01.280Z,3.13
2022-10-19T17:22:52.360Z,5.45
2022-10-19T17:28:35.969Z,6.72
2022-10-19T17:31:26.357Z,1.88
2022-10-19T17:34:15.024Z,3.88
2022-10-19T17:37:03.378Z,2.72
2022-10-19T17:39:52.046Z,1.90
2022-10-19T17:42:40.508Z,5.13
2022-10-19T17:45:28.831Z,4.93
2022-10-19T17:48:19.047Z,4.90
2022-10-19T17:51:09.092Z,4.78
2022-10-19T17:53:59.091Z,6.18
2022-10-19T17:56:47.463Z,10.80
2022-10-19T17:59:52.087Z,6.53
2022-10-19T18:02:41.602Z,10.35
2022-10-19T18:05:31.401Z,12.05
2022-10-19T18:08:19.783Z,30.63
2022-10-19T18:11:10.277Z,12.25
2022-10-19T18:14:00.458Z,8.82
2022-10-19T18:16:48.913Z,4.83
2022-10-19T18:19:37.217Z,5.75
2022-10-19T18:22:26.965Z,8.05
2022-10-19T18:25:21.775Z,8.77
2022-10-19T18:28:14.353Z,13.52
2022-10-19T18:31:07.365Z,15.48
2022-10-19T18:33:58.044Z,15.85
2022-10-19T18:36:46.638Z,25.00
2022-10-19T18:39:36.371Z,38.55
2022-10-19T18:42:24.821Z,28.85
2022-10-19T18:45:13.187Z,9.15
2022-10-19T18:48:01.509Z,8.60
2022-10-19T18:50:50.026Z,11.27
2022-10-19T18:53:38.516Z,12.82
2022-10-19T18:56:29.438Z,11.93
2022-10-19T18:59:18.709Z,8.02
2022-10-19T19:02:13.627Z,8.70
2022-10-19T19:05:11.307Z,16.85
2022-10-19T19:07:59.765Z,11.43
2022-10-19T19:10:48.202Z,13.10
2022-10-19T19:13:38.695Z,9.98
2022-10-19T19:16:28.462Z,13.00
2022-10-19T19:19:18.440Z,15.23
2022-10-19T19:22:08.640Z,19.83
2022-10-19T19:24:57.215Z,16.63
2022-10-19T19:27:45.509Z,16.10
2022-10-19T19:30:35.240Z,17.60
2022-10-19T19:33:23.678Z,22.02
2022-10-19T19:36:14.344Z,14.63
2022-10-19T19:39:04.891Z,15.75
2022-10-19T19:41:53.297Z,14.55
2022-10-19T19:44:41.605Z,12.60
2022-10-19T19:47:31.284Z,12.73
2022-10-19T19:50:19.689Z,13.50
2022-10-19T19:53:08.044Z,11.68
2022-10-19T19:55:56.435Z,12.88
2022-10-19T19:58:46.228Z,15.48
2022-10-19T20:01:36.671Z,13.45
2022-10-19T20:04:26.436Z,11.30
2022-10-19T20:07:14.762Z,16.55
2022-10-19T20:10:03.107Z,14.10
2022-10-19T20:12:51.483Z,15.20
2022-10-19T20:15:40.475Z,17.80
2022-10-19T20:18:28.799Z,15.07
2022-10-19T20:21:19.273Z,13.00
2022-10-19T20:24:08.475Z,14.48
2022-10-19T20:26:57.119Z,10.57
2022-10-19T20:29:45.438Z,19.10
2022-10-19T20:32:34.120Z,15.40
2022-10-19T20:35:22.627Z,15.27
2022-10-19T20:38:12.274Z,15.02
2022-10-19T20:41:02.011Z,18.65
2022-10-19T20:43:53.729Z,18.67
2022-10-19T20:46:42.090Z,22.23
2022-10-19T20:49:30.429Z,19.92
2022-10-19T20:52:18.810Z,23.73
2022-10-19T20:55:09.452Z,25.73
2022-10-19T20:57:57.805Z,19.17
2022-10-19T21:00:46.113Z,17.13
2022-10-19T21:03:34.576Z,15.65
2022-10-19T21:06:25.123Z,13.75
2022-10-19T21:09:15.074Z,15.85
2022-10-19T21:12:04.946Z,15.88
2022-10-19T21:14:53.263Z,20.52
2022-10-19T21:17:41.594Z,17.10
2022-10-19T21:20:29.942Z,17.38
2022-10-19T21:23:18.282Z,22.52
2022-10-19T21:26:06.750Z,16.15
2022-10-19T21:28:56.850Z,18.02
2022-10-19T21:31:48.785Z,14.38
2022-10-19T21:34:37.588Z,14.27
2022-10-19T21:37:25.917Z,16.48
2022-10-19T21:40:14.385Z,13.82
2022-10-19T21:43:02.778Z,14.15
2022-10-19T21:45:52.541Z,14.93
2022-10-19T21:48:41.059Z,17.27
2022-10-19T21:51:35.090Z,16.52
2022-10-19T21:54:25.637Z,15.20
2022-10-19T21:57:14.052Z,16.58
2022-10-19T22:00:02.377Z,13.82
2022-10-19T22:02:52.085Z,15.32
2022-10-19T22:05:40.510Z,14.55
2022-10-19T22:08:28.920Z,15.77
2022-10-19T22:11:17.476Z,15.05
2022-10-19T22:14:06.178Z,15.95
2022-10-19T22:16:54.469Z,16.83
2022-10-19T22:19:44.122Z,15.23
2022-10-19T22:22:32.665Z,15.77
2022-10-19T22:25:21.152Z,15.02
2022-10-19T22:28:09.493Z,16.25
2022-10-19T22:30:59.485Z,16.50
2022-10-19T22:33:48.002Z,15.68
2022-10-19T22:36:37.939Z,14.52
2022-10-19T22:39:27.892Z,16.20
2022-10-19T22:42:16.429Z,18.13
2022-10-19T22:45:05.544Z,16.05
2022-10-19T22:47:53.817Z,15.32
2022-10-19T22:50:42.136Z,13.15
2022-10-19T22:53:31.761Z,13.98
2022-10-19T22:56:20.058Z,15.70
2022-10-19T22:59:09.134Z,14.32
2022-10-19T23:01:57.419Z,21.08
2022-10-19T23:04:45.733Z,16.40
2022-10-19T23:07:34.338Z,15.02
2022-10-19T23:10:24.437Z,14.05
2022-10-19T23:13:12.753Z,18.50
2022-10-19T23:16:01.108Z,12.52
2022-10-19T23:18:49.627Z,15.75
2022-10-19T23:21:37.953Z,12.07
2022-10-19T23:24:26.249Z,11.18
2022-10-19T23:27:16.134Z,12.45
2022-10-19T23:30:05.702Z,13.50
2022-10-19T23:32:53.970Z,13.30
2022-10-19T23:35:42.261Z,8.68
2022-10-19T23:38:30.581Z,10.80
2022-10-19T23:41:20.004Z,9.98
2022-10-19T23:44:10.935Z,11.50
2022-10-19T23:46:59.294Z,10.25
2022-10-19T23:49:47.703Z,10.43
2022-10-19T23:52:36.109Z,9.13
2022-10-19T23:55:24.474Z,11.18
2022-10-19T23:58:12.798Z,9.70
